Details From YBMA - Mount Isa
To YNTN - Normanton
Flight Number -
Tags decoded
Created
Modified
Stats Distance 200 nm / 371 km
Max Altitude 0 ft / 0 m
Waypoints 4
Social Downloads 1
Likes 0
Share VATSIM

Download

Looking for another format? Having issues loading an existing format? Contact us
Advertisement - Login to hide

Notes

Requested: YBMA MA W793 SHINN YNTN

Route

YBMA MA W793 SHINN YNTN

ID Type Via Altitude (ft/m) Position (lat/lon) Dist (leg/tot) Name
O YBMA APT - 0 / 0 -20.66640 / 139.48800 - / 0 nm Mount Isa
MA VOR - 0 / 0 -20.66470 / 139.48600 0 / 0 nm MOUNT ISA
SHINN FIX W793 (AWY-LO) 0 / 0 -19.17830 / 140.28800 100 / 100 nm
O YNTN APT - 0 / 0 -17.68710 / 141.07200 100 / 200 nm Normanton

Altitude Profile

Advertisement - Login to hide

Weather


0- 5 10 15 20 25 30 35+ Temperature / °C

Clouds and Precipitation
Forecast for 2020-02-27 06:00 UTC. Updated 3 hours ago

Ground ~20,000 ft ~40,000 ft Winds

YBMA

Details ICAO YBMA (ISA)
Name Mount Isa
Region Australia
Timezone Australia/Brisbane (UTC+10.0)
Stats Elevation 1,121 ft / 342 m (AMSL)
Location -20.666400° 139.488000°
Runways 1
Magnetic Variation 5.586° E

METAR

YBMA 270600Z AUTO 30007KT 9999 // BKN100 31/22 Q1008

Decode

TAF

TAF YBMA 270410Z 2706/2718 19010KT 9999 SCT045 FM270900 VRB03KT CAVOK FM271500 19005KT CAVOK PROB30 TEMPO 2706/2709 VRB15G25KT 2000 TSRA BKN010 FEW020CB

Decode

Departure Runways

ID Width Length Bearing (true/mag) Surface Threshold Overrun Markings Lighting
16 148 ft / 45 m 8,859 ft / 2,700 m 167.80° / 162.21° ASPHALT 210 ft / 64 m 79 ft / 24 m APP EDGE THRESHOLD
34 148 ft / 45 m 8,859 ft / 2,700 m 347.80° / 342.21° ASPHALT 213 ft / 65 m 49 ft / 15 m APP EDGE THRESHOLD

YNTN

Details ICAO YNTN (NTN)
Name Normanton
Region Australia
Timezone Australia/Brisbane (UTC+10.0)
Stats Elevation 36 ft / 11 m (AMSL)
Location -17.687100° 141.072000°
Runways 1
Magnetic Variation 5.547° E

METAR

YNTN 270600Z AUTO 31012KT 9999 // NCD 32/23 Q1006

Decode

TAF

Not found

Destination Runways

ID Width Length Bearing (true/mag) Surface Threshold Overrun Markings Lighting
14 98 ft / 30 m 5,476 ft / 1,669 m 146.83° / 141.28° ASPHALT 0 ft / 0 m 0 ft / 0 m VISUAL EDGE THRESHOLD
32 98 ft / 30 m 5,476 ft / 1,669 m 326.83° / 321.28° ASPHALT 0 ft / 0 m 0 ft / 0 m VISUAL EDGE THRESHOLD

Popular Alternatives